Ferme-Neuve, Canada
Current Conditions -  °F | °C
As of 5:00 PM on Monday 20 Oct 2014 (Local Time) from CYND Reporting Station
Light Rain Light Rain  
Wind Chill:   Ceiling: 4000
Heat Index:   Visibility: 12mi
Dew Point:   Wind: 7mph
Humidity: 76%   Direction: 70°ENE
Pressure: 29.9"   Gusts: NA
Location:  46.7°N, 75.45°W
Report Text: CYND 202100Z 07006KT 060V130 12SM -RA FEW020 OVC040 06/02 A2990 RMK SC2SC6 SLP128
Loading
Personal Weather Stations






























Interactive Weather Map
Tropical Storm Tracking
New forecast layout! Learn more

10-Day Weather Forecast

Advertisements
Track Severe Weather on mobile